createdAt,value
2017-12-14T00:00:58.505Z,6.17
2017-12-14T00:03:26.022Z,6.13
2017-12-14T00:05:53.566Z,5.80
2017-12-14T00:08:21.096Z,5.47
2017-12-14T00:10:48.630Z,5.67
2017-12-14T00:13:16.950Z,5.90
2017-12-14T00:15:44.473Z,5.40
2017-12-14T00:18:11.997Z,5.67
2017-12-14T00:20:39.534Z,5.37
2017-12-14T00:23:07.058Z,7.33
2017-12-14T00:25:34.562Z,5.97
2017-12-14T00:28:02.091Z,8.90
2017-12-14T00:30:29.593Z,5.77
2017-12-14T00:32:57.092Z,7.90
2017-12-14T00:35:24.629Z,5.90
2017-12-14T00:37:52.890Z,8.23
2017-12-14T00:40:20.419Z,6.23
2017-12-14T00:42:47.997Z,5.10
2017-12-14T00:45:15.542Z,6.63
2017-12-14T00:47:43.117Z,6.20
2017-12-14T00:50:10.666Z,7.57
2017-12-14T00:52:38.160Z,6.23
2017-12-14T00:55:06.458Z,6.17
2017-12-14T00:57:34.001Z,6.70
2017-12-14T01:00:02.266Z,6.50
2017-12-14T01:02:29.786Z,8.27
2017-12-14T01:04:57.332Z,8.17
2017-12-14T01:07:24.818Z,6.20
2017-12-14T01:09:52.291Z,6.70
2017-12-14T01:12:19.790Z,6.57
2017-12-14T01:14:47.266Z,5.77
2017-12-14T01:17:14.739Z,7.17
2017-12-14T01:19:42.242Z,5.90
2017-12-14T01:22:10.482Z,5.73
2017-12-14T01:24:37.974Z,7.93
2017-12-14T01:27:05.479Z,5.20
2017-12-14T01:29:32.951Z,6.73
2017-12-14T01:32:00.427Z,6.20
2017-12-14T01:34:27.927Z,5.17
2017-12-14T01:36:55.410Z,5.35
2017-12-14T01:39:22.890Z,6.87
2017-12-14T01:41:50.394Z,6.33
2017-12-14T01:44:18.638Z,5.30
2017-12-14T01:46:46.106Z,5.90
2017-12-14T01:49:13.665Z,7.53
2017-12-14T01:51:41.130Z,5.70
2017-12-14T01:54:08.598Z,6.77
2017-12-14T01:56:36.883Z,5.50
2017-12-14T01:59:05.126Z,7.30
2017-12-14T02:01:32.598Z,5.47
2017-12-14T02:04:00.107Z,6.20
2017-12-14T02:06:27.582Z,5.87
2017-12-14T02:08:55.058Z,6.10
2017-12-14T02:11:22.567Z,6.50
2017-12-14T02:13:50.043Z,4.93
2017-12-14T02:16:17.522Z,6.53
2017-12-14T02:18:45.990Z,5.83
2017-12-14T02:21:13.466Z,5.30
2017-12-14T02:23:40.942Z,6.53
2017-12-14T02:26:08.446Z,6.87
2017-12-14T02:28:35.919Z,7.63
2017-12-14T02:31:03.403Z,6.45
2017-12-14T02:33:30.894Z,5.70
2017-12-14T02:35:59.135Z,6.23
2017-12-14T02:38:26.607Z,5.20
2017-12-14T02:40:54.122Z,5.33
2017-12-14T02:43:21.590Z,7.30
2017-12-14T02:45:49.078Z,5.37
2017-12-14T02:48:16.641Z,6.13
2017-12-14T02:50:44.898Z,6.10
2017-12-14T02:53:12.366Z,9.80
2017-12-14T02:55:39.865Z,5.80
2017-12-14T02:58:08.106Z,6.70
2017-12-14T03:00:35.586Z,5.90
2017-12-14T03:03:03.866Z,5.60
2017-12-14T03:05:32.105Z,6.07
2017-12-14T03:08:00.349Z,7.07
2017-12-14T03:10:27.847Z,5.40
2017-12-14T03:12:56.086Z,7.30
2017-12-14T03:15:23.554Z,5.30
2017-12-14T03:17:51.059Z,7.00
2017-12-14T03:20:18.534Z,9.13
2017-12-14T03:22:46.012Z,5.40
2017-12-14T03:25:13.511Z,7.37
2017-12-14T03:27:40.987Z,6.17
2017-12-14T03:30:08.459Z,5.60
2017-12-14T03:32:36.730Z,7.27
2017-12-14T03:35:04.966Z,6.50
2017-12-14T03:37:32.438Z,5.87
2017-12-14T03:39:59.930Z,4.70
2017-12-14T03:42:28.173Z,5.43
2017-12-14T03:44:55.647Z,5.73
2017-12-14T03:47:23.164Z,5.20
2017-12-14T03:49:50.670Z,5.12
2017-12-14T03:52:18.935Z,5.20
2017-12-14T03:54:47.951Z,5.90
2017-12-14T03:57:16.200Z,7.57
2017-12-14T03:59:43.682Z,5.37
2017-12-14T04:02:11.959Z,6.50
2017-12-14T04:04:40.214Z,7.57
2017-12-14T04:07:07.686Z,5.27
2017-12-14T04:09:35.967Z,7.30
2017-12-14T04:12:04.208Z,5.70
2017-12-14T04:14:31.690Z,7.97
2017-12-14T04:16:59.193Z,7.57
2017-12-14T04:19:26.669Z,5.40
2017-12-14T04:21:54.154Z,5.80
2017-12-14T04:24:21.678Z,7.40
2017-12-14T04:26:49.162Z,7.07
2017-12-14T04:29:16.643Z,8.55
2017-12-14T04:31:44.154Z,5.63
2017-12-14T04:34:11.631Z,7.77
2017-12-14T04:36:39.098Z,6.60
2017-12-14T04:39:06.602Z,8.57
2017-12-14T04:41:34.076Z,6.30
2017-12-14T04:44:01.544Z,6.97
2017-12-14T04:46:29.049Z,7.30
2017-12-14T04:48:56.526Z,6.40
2017-12-14T04:51:24.762Z,5.97
2017-12-14T04:53:52.301Z,7.90
2017-12-14T04:56:19.777Z,6.30
2017-12-14T04:58:47.245Z,8.07
2017-12-14T05:01:14.757Z,6.47
2017-12-14T05:03:42.237Z,5.00
2017-12-14T05:06:09.710Z,6.60
2017-12-14T05:08:37.218Z,7.43
2017-12-14T05:11:04.698Z,8.50
2017-12-14T05:13:32.179Z,5.87
2017-12-14T05:15:59.683Z,7.17
2017-12-14T05:18:27.926Z,6.75
2017-12-14T05:20:55.402Z,8.17
2017-12-14T05:23:23.674Z,7.17
2017-12-14T05:25:51.158Z,7.80
2017-12-14T05:28:18.696Z,9.00
2017-12-14T05:30:46.162Z,6.62
2017-12-14T05:33:14.409Z,7.32
2017-12-14T05:35:41.883Z,5.90
2017-12-14T05:38:09.381Z,6.80
2017-12-14T05:40:36.859Z,5.43
2017-12-14T05:43:04.358Z,6.43
2017-12-14T05:45:31.882Z,7.23
2017-12-14T05:47:59.366Z,6.57
2017-12-14T05:50:26.838Z,5.87
2017-12-14T05:52:55.113Z,8.13
2017-12-14T05:55:22.589Z,7.13
2017-12-14T05:57:50.834Z,8.27
2017-12-14T06:00:18.343Z,6.73
2017-12-14T06:02:45.850Z,7.70
2017-12-14T06:05:13.330Z,7.80
2017-12-14T06:07:41.602Z,7.23
2017-12-14T06:10:09.846Z,6.47
2017-12-14T06:12:37.327Z,5.55
2017-12-14T06:15:05.606Z,8.47
2017-12-14T06:17:33.082Z,6.77
2017-12-14T06:20:01.321Z,7.00
2017-12-14T06:22:28.841Z,7.50
2017-12-14T06:24:56.352Z,7.17
2017-12-14T06:27:23.835Z,6.40
2017-12-14T06:29:52.145Z,9.70
2017-12-14T06:32:19.617Z,5.63
2017-12-14T06:34:47.090Z,7.37
2017-12-14T06:37:14.598Z,6.90
2017-12-14T06:39:42.071Z,6.47
2017-12-14T06:42:09.550Z,6.80
2017-12-14T06:44:37.088Z,6.62
2017-12-14T06:47:04.571Z,7.53
2017-12-14T06:49:41.776Z,8.15
2017-12-14T06:52:09.722Z,9.80
2017-12-14T06:54:37.202Z,7.47
2017-12-14T06:57:04.707Z,5.63
2017-12-14T06:59:32.226Z,8.30
2017-12-14T07:01:59.702Z,6.05
2017-12-14T07:04:31.181Z,7.30
2017-12-14T07:06:58.661Z,7.67
2017-12-14T07:09:26.134Z,8.17
2017-12-14T07:11:53.642Z,6.23
2017-12-14T07:14:21.886Z,8.73
2017-12-14T07:16:49.367Z,14.50
2017-12-14T07:19:17.643Z,9.90
2017-12-14T07:21:45.887Z,11.43
2017-12-14T07:24:13.366Z,13.67
2017-12-14T07:26:40.880Z,11.20
2017-12-14T07:29:08.663Z,9.30
2017-12-14T07:31:36.158Z,12.53
2017-12-14T07:34:04.435Z,9.67
2017-12-14T07:36:32.677Z,13.07
2017-12-14T07:39:00.167Z,10.47
2017-12-14T07:41:28.456Z,12.35
2017-12-14T07:44:08.522Z,9.40
2017-12-14T07:46:36.030Z,14.93
2017-12-14T07:49:15.422Z,9.87
2017-12-14T07:51:42.936Z,9.05
2017-12-14T07:54:10.419Z,16.10
2017-12-14T07:56:38.862Z,9.73
2017-12-14T07:59:06.366Z,10.77
2017-12-14T08:01:34.606Z,10.73
2017-12-14T08:04:02.090Z,12.13
2017-12-14T08:06:30.366Z,13.20
2017-12-14T08:08:58.614Z,13.23
2017-12-14T08:11:26.098Z,12.47
2017-12-14T08:13:54.362Z,11.70
2017-12-14T08:16:21.839Z,10.43
2017-12-14T08:18:50.145Z,11.40
2017-12-14T08:21:17.638Z,12.00
2017-12-14T08:23:45.114Z,10.43
2017-12-14T08:26:12.595Z,10.30
2017-12-14T08:28:40.918Z,13.60
2017-12-14T08:31:08.394Z,11.40
2017-12-14T08:33:35.871Z,13.50
2017-12-14T08:36:04.155Z,12.05
2017-12-14T08:38:32.409Z,12.07
2017-12-14T08:40:59.894Z,13.00
2017-12-14T08:43:28.166Z,12.10
2017-12-14T08:45:56.411Z,14.03
2017-12-14T08:48:23.881Z,12.03
2017-12-14T08:50:52.901Z,11.80
2017-12-14T08:53:21.146Z,15.77
2017-12-14T08:55:48.634Z,15.90
2017-12-14T08:58:16.905Z,36.90
2017-12-14T09:00:45.231Z,67.80
2017-12-14T09:03:12.759Z,116.30
2017-12-14T09:05:40.291Z,165.90
2017-12-14T09:08:08.530Z,208.90
2017-12-14T09:10:36.018Z,213.73
2017-12-14T09:13:03.538Z,258.53
2017-12-14T09:15:31.035Z,322.30
2017-12-14T09:17:58.527Z,376.03
2017-12-14T09:20:27.234Z,405.70
2017-12-14T09:22:54.722Z,426.77
2017-12-14T09:25:22.207Z,424.60
2017-12-14T09:27:49.738Z,409.70
2017-12-14T09:30:17.238Z,406.33
2017-12-14T09:32:45.891Z,385.90
2017-12-14T09:35:13.399Z,384.33
2017-12-14T09:37:40.882Z,382.30
2017-12-14T09:40:08.432Z,358.43
2017-12-14T09:42:35.947Z,338.87
2017-12-14T09:45:04.198Z,340.03
2017-12-14T09:47:31.687Z,333.83
2017-12-14T09:49:59.285Z,326.77
2017-12-14T09:52:26.779Z,331.87
2017-12-14T09:54:54.266Z,300.67
2017-12-14T09:57:22.550Z,296.47
2017-12-14T09:59:50.866Z,289.67
2017-12-14T10:02:19.069Z,276.27
2017-12-14T10:04:46.653Z,275.63
2017-12-14T10:07:14.159Z,271.23
2017-12-14T10:09:41.665Z,258.97
2017-12-14T10:12:09.199Z,254.57
2017-12-14T10:14:36.698Z,250.10
2017-12-14T10:17:04.959Z,226.37
2017-12-14T10:19:32.475Z,222.93
2017-12-14T10:22:00.003Z,216.20
2017-12-14T10:24:27.489Z,208.40
2017-12-14T10:26:55.007Z,200.77
2017-12-14T10:29:23.291Z,184.90
2017-12-14T10:31:50.786Z,184.68
2017-12-14T10:34:18.299Z,176.30
2017-12-14T10:36:46.558Z,175.63
2017-12-14T10:39:14.042Z,169.80
2017-12-14T10:41:42.330Z,166.13
2017-12-14T10:44:09.834Z,156.23
2017-12-14T10:46:37.394Z,156.40
2017-12-14T10:49:04.936Z,143.20
2017-12-14T10:51:32.425Z,140.37
2017-12-14T10:53:59.941Z,138.10
2017-12-14T10:56:27.472Z,135.30
2017-12-14T10:58:55.735Z,127.73
2017-12-14T11:01:28.851Z,123.40
2017-12-14T11:03:56.430Z,122.40
2017-12-14T11:06:23.928Z,115.60
2017-12-14T11:08:51.440Z,120.40
2017-12-14T11:11:18.921Z,104.40
2017-12-14T11:13:46.435Z,109.10
2017-12-14T11:16:14.710Z,98.57
2017-12-14T11:18:42.962Z,97.23
2017-12-14T11:21:10.465Z,97.33
2017-12-14T11:23:38.003Z,96.00
2017-12-14T11:26:06.300Z,95.68
2017-12-14T11:28:33.785Z,91.13
2017-12-14T11:31:01.295Z,83.07
2017-12-14T11:33:29.546Z,84.43
2017-12-14T11:35:57.026Z,81.50
2017-12-14T11:38:25.304Z,82.20
2017-12-14T11:40:53.552Z,76.43
2017-12-14T11:43:21.027Z,80.37
2017-12-14T11:45:49.311Z,46.72
2017-12-14T11:48:17.558Z,46.83
2017-12-14T11:50:45.046Z,45.23
2017-12-14T11:53:13.338Z,44.50
2017-12-14T11:55:40.831Z,43.30
2017-12-14T11:58:08.323Z,44.20
2017-12-14T12:00:35.830Z,42.57
2017-12-14T12:03:03.307Z,40.03
2017-12-14T12:05:30.787Z,38.87
2017-12-14T12:07:58.302Z,41.80
2017-12-14T12:10:25.796Z,41.50
2017-12-14T12:12:53.275Z,41.60
2017-12-14T12:15:20.817Z,39.83
2017-12-14T12:17:48.302Z,37.78
2017-12-14T12:20:16.585Z,34.15
2017-12-14T12:22:44.863Z,33.50
2017-12-14T12:25:13.177Z,33.90
2017-12-14T12:27:40.663Z,31.10
2017-12-14T12:30:08.227Z,30.88
2017-12-14T12:32:35.743Z,28.20
2017-12-14T12:35:03.229Z,27.97
2017-12-14T12:37:30.779Z,27.93
2017-12-14T12:39:58.270Z,24.87
2017-12-14T12:42:25.754Z,25.40
2017-12-14T12:44:54.202Z,24.40
2017-12-14T12:47:21.714Z,21.30
2017-12-14T15:01:51.838Z,13.60
2017-12-14T15:07:40.623Z,13.43
2017-12-14T15:10:08.118Z,11.97
